Caineville, Utah
Current Conditions -  °F | °C
As of 7:53 PM on Thursday 27 Nov 2014 (Local Time) from KBCE Reporting Station
Clear Clear  
Wind Chill: 16°   Ceiling: Unl
Heat Index: 24°   Visibility: 10mi
Dew Point: 17°   Wind: 7mph
Humidity: 75%   Direction: 250°WSW
Pressure: 30.38"   Gusts: NA
Location:  38.2517°N, 111.706°W
Report Text: KBCE 280253Z AUTO 25006KT 10SM CLR M04/M08 A3038 RMK AO2 SLP285 T10441083 57004
Loading
Personal Weather Stations






























Interactive Weather Map New forecast layout! Learn more

10-Day Weather Forecast

Advertisements
Track Severe Weather on mobile